createdAt,value
2018-05-12T00:00:51.914Z,962.42
2018-05-12T00:01:51.849Z,962.46
2018-05-12T00:02:51.788Z,962.46
2018-05-12T00:03:51.725Z,962.40
2018-05-12T00:04:51.662Z,962.40
2018-05-12T00:05:51.685Z,962.43
2018-05-12T00:06:51.538Z,962.41
2018-05-12T00:07:51.473Z,962.43
2018-05-12T00:08:51.410Z,962.47
2018-05-12T00:09:51.350Z,962.48
2018-05-12T00:10:51.286Z,962.45
2018-05-12T00:11:51.359Z,962.46
2018-05-12T00:12:51.165Z,962.44
2018-05-12T00:13:51.098Z,962.47
2018-05-12T00:14:51.039Z,962.48
2018-05-12T00:15:50.970Z,962.49
2018-05-12T00:16:50.911Z,962.45
2018-05-12T00:17:50.846Z,962.46
2018-05-12T00:18:50.782Z,962.48
2018-05-12T00:19:50.725Z,962.47
2018-05-12T00:20:50.660Z,962.43
2018-05-12T00:21:50.595Z,962.45
2018-05-12T00:22:50.532Z,962.43
2018-05-12T00:23:50.469Z,962.40
2018-05-12T00:24:50.408Z,962.44
2018-05-12T00:25:50.344Z,962.46
2018-05-12T00:26:50.284Z,962.42
2018-05-12T00:27:50.223Z,962.45
2018-05-12T00:28:50.155Z,962.43
2018-05-12T00:29:50.095Z,962.46
2018-05-12T00:30:50.032Z,962.43
2018-05-12T00:31:49.968Z,962.42
2018-05-12T00:32:49.905Z,962.42
2018-05-12T00:33:49.847Z,962.42
2018-05-12T00:34:49.778Z,962.39
2018-05-12T00:35:49.713Z,962.40
2018-05-12T00:36:49.652Z,962.41
2018-05-12T00:37:49.591Z,962.38
2018-05-12T00:38:49.543Z,962.40
2018-05-12T00:39:49.463Z,962.41
2018-05-12T00:40:49.401Z,962.41
2018-05-12T00:41:49.337Z,962.43
2018-05-12T00:42:49.349Z,962.45
2018-05-12T00:43:49.306Z,962.42
2018-05-12T00:44:49.216Z,962.40
2018-05-12T00:45:49.093Z,962.40
2018-05-12T00:46:49.024Z,962.39
2018-05-12T00:47:48.961Z,962.34
2018-05-12T00:48:48.908Z,962.33
2018-05-12T00:49:48.834Z,962.32
2018-05-12T00:50:48.772Z,962.30
2018-05-12T00:51:48.711Z,962.29
2018-05-12T00:52:48.644Z,962.30
2018-05-12T00:53:48.583Z,962.25
2018-05-12T00:54:48.520Z,962.29
2018-05-12T00:55:48.480Z,962.32
2018-05-12T00:56:48.389Z,962.31
2018-05-12T00:57:48.326Z,962.31
2018-05-12T00:58:48.268Z,962.33
2018-05-12T00:59:48.204Z,962.33
2018-05-12T01:00:48.146Z,962.33
2018-05-12T01:01:48.079Z,962.34
2018-05-12T01:02:48.019Z,962.35
2018-05-12T01:03:47.951Z,962.35
2018-05-12T01:04:47.890Z,962.32
2018-05-12T01:05:47.827Z,962.30
2018-05-12T01:06:47.765Z,962.32
2018-05-12T01:07:47.700Z,962.32
2018-05-12T01:08:47.636Z,962.31
2018-05-12T01:09:47.575Z,962.29
2018-05-12T01:10:47.511Z,962.27
2018-05-12T01:11:47.449Z,962.29
2018-05-12T01:12:47.385Z,962.27
2018-05-12T01:13:47.322Z,962.27
2018-05-12T01:14:47.258Z,962.31
2018-05-12T01:15:47.196Z,962.22
2018-05-12T01:16:47.132Z,962.22
2018-05-12T01:17:47.069Z,962.23
2018-05-12T01:18:47.009Z,962.21
2018-05-12T01:19:46.945Z,962.21
2018-05-12T01:20:46.881Z,962.21
2018-05-12T01:21:46.817Z,962.18
2018-05-12T01:22:46.756Z,962.19
2018-05-12T01:23:46.691Z,962.19
2018-05-12T01:24:46.638Z,962.17
2018-05-12T01:25:46.565Z,962.19
2018-05-12T01:26:46.505Z,962.16
2018-05-12T01:27:46.440Z,962.16
2018-05-12T01:28:46.376Z,962.17
2018-05-12T01:29:46.315Z,962.16
2018-05-12T01:30:46.253Z,962.15
2018-05-12T01:31:46.191Z,962.16
2018-05-12T01:32:46.125Z,962.16
2018-05-12T01:33:46.060Z,962.14
2018-05-12T01:34:46.001Z,962.16
2018-05-12T01:35:45.948Z,962.15
2018-05-12T01:36:45.871Z,962.09
2018-05-12T01:37:45.811Z,962.11
2018-05-12T01:38:45.747Z,962.11
2018-05-12T01:39:45.691Z,962.13
2018-05-12T01:40:45.619Z,962.12
2018-05-12T01:41:45.555Z,962.11
2018-05-12T01:42:45.499Z,962.12
2018-05-12T01:43:45.431Z,962.12
2018-05-12T01:44:45.368Z,962.09
2018-05-12T01:45:45.304Z,962.12
2018-05-12T01:46:45.287Z,962.08
2018-05-12T01:47:45.175Z,962.06
2018-05-12T01:48:45.115Z,962.11
2018-05-12T01:49:45.103Z,962.11
2018-05-12T01:50:44.988Z,962.07
2018-05-12T01:51:44.925Z,962.09
2018-05-12T01:52:44.863Z,962.08
2018-05-12T01:53:44.799Z,962.12
2018-05-12T01:54:44.734Z,962.08
2018-05-12T01:55:44.671Z,962.07
2018-05-12T01:56:44.608Z,962.10
2018-05-12T01:57:44.544Z,962.08
2018-05-12T01:58:44.483Z,962.06
2018-05-12T01:59:44.417Z,962.09
2018-05-12T02:00:44.354Z,962.05
2018-05-12T02:01:44.291Z,962.03
2018-05-12T02:02:44.228Z,962.08
2018-05-12T02:03:44.165Z,962.08
2018-05-12T02:04:44.101Z,962.04
2018-05-12T02:05:44.039Z,962.08
2018-05-12T02:06:43.976Z,962.11
2018-05-12T02:07:43.912Z,962.09
2018-05-12T02:08:43.850Z,962.09
2018-05-12T02:09:43.786Z,962.12
2018-05-12T02:10:43.723Z,962.11
2018-05-12T02:11:43.660Z,962.13
2018-05-12T02:12:43.599Z,962.12
2018-05-12T02:13:43.533Z,962.09
2018-05-12T02:14:43.471Z,962.10
2018-05-12T02:15:43.407Z,962.12
2018-05-12T02:16:43.343Z,962.12
2018-05-12T02:17:43.281Z,962.12
2018-05-12T02:18:43.223Z,962.16
2018-05-12T02:19:43.154Z,962.12
2018-05-12T02:20:43.093Z,962.15
2018-05-12T02:21:43.027Z,962.16
2018-05-12T02:22:42.964Z,962.16
2018-05-12T02:23:42.902Z,962.18
2018-05-12T02:24:42.837Z,962.17
2018-05-12T02:25:42.776Z,962.14
2018-05-12T02:26:42.712Z,962.12
2018-05-12T02:27:42.647Z,962.14
2018-05-12T02:28:42.585Z,962.15
2018-05-12T02:29:42.521Z,962.10
2018-05-12T02:30:42.460Z,962.11
2018-05-12T02:31:42.400Z,962.13
2018-05-12T02:32:42.332Z,962.14
2018-05-12T02:33:42.269Z,962.24
2018-05-12T02:34:42.206Z,962.16
2018-05-12T02:35:42.142Z,962.21
2018-05-12T02:36:42.077Z,962.22
2018-05-12T02:37:42.015Z,962.22
2018-05-12T02:38:41.951Z,962.19
2018-05-12T02:39:41.891Z,962.20
2018-05-12T02:40:41.822Z,962.23
2018-05-12T02:41:41.764Z,962.21
2018-05-12T02:42:41.699Z,962.22
2018-05-12T02:43:41.643Z,962.22
2018-05-12T02:44:41.570Z,962.23
2018-05-12T02:45:41.509Z,962.22
2018-05-12T02:46:41.446Z,962.22
2018-05-12T02:47:41.383Z,962.23
2018-05-12T02:48:41.318Z,962.22
2018-05-12T02:49:41.253Z,962.26
2018-05-12T02:50:41.190Z,962.24
2018-05-12T02:51:41.131Z,962.23
2018-05-12T02:52:41.067Z,962.22
2018-05-12T02:53:41.001Z,962.19
2018-05-12T02:54:40.938Z,962.22
2018-05-12T02:55:40.878Z,962.25
2018-05-12T02:56:40.812Z,962.23
2018-05-12T02:57:40.747Z,962.19
2018-05-12T02:58:40.683Z,962.19
2018-05-12T02:59:40.620Z,962.21
2018-05-12T03:00:40.555Z,962.19
2018-05-12T03:01:40.494Z,962.18
2018-05-12T03:02:40.430Z,962.16
2018-05-12T03:03:40.365Z,962.19
2018-05-12T03:04:40.304Z,962.19
2018-05-12T03:05:40.240Z,962.15
2018-05-12T03:06:40.176Z,962.19
2018-05-12T03:07:40.111Z,962.17
2018-05-12T03:08:40.048Z,962.18
2018-05-12T03:09:39.990Z,962.17
2018-05-12T03:10:39.926Z,962.18
2018-05-12T03:11:39.859Z,962.16
2018-05-12T03:12:39.796Z,962.18
2018-05-12T03:13:39.735Z,962.20
2018-05-12T03:14:39.669Z,962.21
2018-05-12T03:15:39.603Z,962.25
2018-05-12T03:16:39.541Z,962.24
2018-05-12T03:17:39.476Z,962.23
2018-05-12T03:18:39.413Z,962.20
2018-05-12T03:19:39.349Z,962.26
2018-05-12T03:20:39.283Z,962.22
2018-05-12T03:21:39.224Z,962.25
2018-05-12T03:22:39.160Z,962.27
2018-05-12T03:23:39.095Z,962.25
2018-05-12T03:24:39.032Z,962.27
2018-05-12T03:25:38.968Z,962.23
2018-05-12T03:26:38.905Z,962.26
2018-05-12T03:27:38.844Z,962.21
2018-05-12T03:28:38.776Z,962.23
2018-05-12T03:29:38.716Z,962.25
2018-05-12T03:30:38.651Z,962.23
2018-05-12T03:31:38.586Z,962.25
2018-05-12T03:32:38.526Z,962.24
2018-05-12T03:33:38.465Z,962.23
2018-05-12T03:34:38.395Z,962.23
2018-05-12T03:35:38.333Z,962.22
2018-05-12T03:36:38.269Z,962.23
2018-05-12T03:37:38.212Z,962.26
2018-05-12T03:38:38.141Z,962.24
2018-05-12T03:39:38.081Z,962.25
2018-05-12T03:40:38.014Z,962.23
2018-05-12T03:41:37.950Z,962.29
2018-05-12T03:42:37.889Z,962.23
2018-05-12T03:43:37.823Z,962.22
2018-05-12T03:44:37.763Z,962.19
2018-05-12T03:45:37.696Z,962.23
2018-05-12T03:46:37.634Z,962.21
2018-05-12T03:47:37.567Z,962.22
2018-05-12T03:48:37.505Z,962.18
2018-05-12T03:49:37.443Z,962.21
2018-05-12T03:50:37.378Z,962.21
2018-05-12T03:51:37.314Z,962.21
2018-05-12T03:52:37.250Z,962.23
2018-05-12T03:53:37.186Z,962.26
2018-05-12T03:54:37.126Z,962.26
2018-05-12T03:55:37.058Z,962.27
2018-05-12T03:56:36.997Z,962.32
2018-05-12T03:57:36.933Z,962.32
2018-05-12T03:58:36.867Z,962.33
2018-05-12T03:59:36.804Z,962.32
2018-05-12T04:00:36.758Z,962.31
2018-05-12T04:01:36.680Z,962.34
2018-05-12T04:02:36.616Z,962.37
2018-05-12T04:03:36.550Z,962.39
2018-05-12T04:04:36.486Z,962.35
2018-05-12T04:05:36.422Z,962.38
2018-05-12T04:06:36.360Z,962.35
2018-05-12T04:07:36.293Z,962.40
2018-05-12T04:08:36.287Z,962.37
2018-05-12T04:09:36.169Z,962.37
2018-05-12T04:10:36.180Z,962.36
2018-05-12T04:11:36.039Z,962.35
2018-05-12T04:12:35.976Z,962.35
2018-05-12T04:13:35.912Z,962.37
2018-05-12T04:14:35.850Z,962.38
2018-05-12T04:15:35.785Z,962.39
2018-05-12T04:16:35.724Z,962.37
2018-05-12T04:17:35.656Z,962.36
2018-05-12T04:18:35.596Z,962.35
2018-05-12T04:19:35.531Z,962.32
2018-05-12T04:20:35.467Z,962.31
2018-05-12T04:21:35.403Z,962.32
2018-05-12T04:22:35.339Z,962.31
2018-05-12T04:23:35.276Z,962.33
2018-05-12T04:24:35.213Z,962.29
2018-05-12T04:25:35.149Z,962.30
2018-05-12T04:26:35.084Z,962.31
2018-05-12T04:27:35.021Z,962.28
2018-05-12T04:28:34.957Z,962.27
2018-05-12T04:29:34.894Z,962.30
2018-05-12T04:30:34.832Z,962.26
2018-05-12T04:31:34.766Z,962.30
2018-05-12T04:32:34.701Z,962.29
2018-05-12T04:33:34.642Z,962.31
2018-05-12T04:34:34.576Z,962.31
2018-05-12T04:35:34.511Z,962.32
2018-05-12T04:36:34.445Z,962.31
2018-05-12T04:37:34.383Z,962.30
2018-05-12T04:38:34.320Z,962.31
2018-05-12T04:39:34.256Z,962.34
2018-05-12T04:40:34.191Z,962.34
2018-05-12T04:41:34.130Z,962.34
2018-05-12T04:42:34.065Z,962.34
2018-05-12T04:43:34.000Z,962.31
2018-05-12T04:44:33.936Z,962.31
2018-05-12T04:45:33.873Z,962.37
2018-05-12T04:46:33.812Z,962.38
2018-05-12T04:47:33.749Z,962.37
2018-05-12T04:48:33.682Z,962.43
2018-05-12T04:49:33.629Z,962.41
2018-05-12T04:50:33.556Z,962.41
2018-05-12T04:51:33.491Z,962.42
2018-05-12T04:52:33.428Z,962.42
2018-05-12T04:53:33.365Z,962.41
2018-05-12T04:54:33.300Z,962.37
2018-05-12T04:55:33.237Z,962.38
2018-05-12T04:56:33.171Z,962.37
2018-05-12T04:57:33.110Z,962.39
2018-05-12T04:58:33.049Z,962.36
2018-05-12T04:59:32.980Z,962.38
2018-05-12T05:00:32.920Z,962.39
2018-05-12T05:01:32.856Z,962.40
2018-05-12T05:02:32.791Z,962.38
2018-05-12T05:03:32.728Z,962.38
2018-05-12T05:04:32.664Z,962.41
2018-05-12T05:05:32.607Z,962.42
2018-05-12T05:06:32.538Z,962.40
2018-05-12T05:07:32.475Z,962.38
2018-05-12T05:08:32.410Z,962.35
2018-05-12T05:09:32.346Z,962.37
2018-05-12T05:10:32.283Z,962.36
2018-05-12T05:11:32.220Z,962.39
2018-05-12T05:12:32.155Z,962.39
2018-05-12T05:13:32.092Z,962.36
2018-05-12T05:14:32.028Z,962.38
2018-05-12T05:15:31.974Z,962.33
2018-05-12T05:16:31.905Z,962.35
2018-05-12T05:17:31.839Z,962.38
2018-05-12T05:18:31.776Z,962.33
2018-05-12T05:19:31.712Z,962.37
2018-05-12T05:20:31.647Z,962.35
2018-05-12T05:21:31.583Z,962.38
2018-05-12T05:22:31.522Z,962.34
2018-05-12T05:23:31.457Z,962.37
2018-05-12T05:24:31.394Z,962.39
2018-05-12T05:25:31.332Z,962.40
2018-05-12T05:26:31.270Z,962.39
2018-05-12T05:27:31.201Z,962.39
2018-05-12T05:28:31.138Z,962.40
2018-05-12T05:29:31.075Z,962.40
2018-05-12T05:30:31.016Z,962.43
2018-05-12T05:31:30.952Z,962.43
2018-05-12T05:32:30.885Z,962.45
2018-05-12T05:33:30.822Z,962.48
2018-05-12T05:34:30.759Z,962.46
2018-05-12T05:35:30.695Z,962.45
2018-05-12T05:36:30.634Z,962.44
2018-05-12T05:37:30.570Z,962.43
2018-05-12T05:38:30.505Z,962.48
2018-05-12T05:39:30.441Z,962.46
2018-05-12T05:40:30.377Z,962.45
2018-05-12T05:41:30.320Z,962.49
2018-05-12T05:42:30.252Z,962.49
2018-05-12T05:43:30.190Z,962.46
2018-05-12T05:44:30.132Z,962.45
2018-05-12T05:45:30.062Z,962.45
2018-05-12T05:46:30.001Z,962.47
2018-05-12T05:47:29.947Z,962.47
2018-05-12T05:48:29.873Z,962.45
2018-05-12T05:49:29.811Z,962.45
2018-05-12T05:50:29.747Z,962.48
2018-05-12T05:51:29.682Z,962.49
2018-05-12T05:52:29.620Z,962.52
2018-05-12T05:53:29.557Z,962.48
2018-05-12T05:54:29.495Z,962.50
2018-05-12T05:55:29.431Z,962.52
2018-05-12T05:56:29.370Z,962.54
2018-05-12T05:57:29.306Z,962.52
2018-05-12T05:58:29.245Z,962.56
2018-05-12T05:59:29.179Z,962.52
2018-05-12T06:00:29.117Z,962.55
2018-05-12T06:01:29.054Z,962.52
2018-05-12T06:02:28.990Z,962.51
2018-05-12T06:03:28.928Z,962.54
2018-05-12T06:04:28.863Z,962.56
2018-05-12T06:05:28.802Z,962.60
2018-05-12T06:06:28.741Z,962.61
2018-05-12T06:07:28.683Z,962.69
2018-05-12T06:08:28.614Z,962.65
2018-05-12T06:09:28.552Z,962.70
2018-05-12T06:10:28.490Z,962.71
2018-05-12T06:11:28.428Z,962.69
2018-05-12T06:12:28.366Z,962.71
2018-05-12T06:13:28.301Z,962.65
2018-05-12T06:14:28.239Z,962.67
2018-05-12T06:15:28.175Z,962.68
2018-05-12T06:16:28.113Z,962.71
2018-05-12T06:17:28.051Z,962.68
2018-05-12T06:18:27.989Z,962.72
2018-05-12T06:19:27.924Z,962.75
2018-05-12T06:20:27.863Z,962.73
2018-05-12T06:21:27.800Z,962.75
2018-05-12T06:22:27.737Z,962.79
2018-05-12T06:23:27.675Z,962.79
2018-05-12T06:24:27.612Z,962.76
2018-05-12T06:25:27.551Z,962.78
2018-05-12T06:26:27.489Z,962.79
2018-05-12T06:27:27.425Z,962.75
2018-05-12T06:28:27.363Z,962.76
2018-05-12T06:29:27.306Z,962.73
2018-05-12T06:30:27.237Z,962.72
2018-05-12T06:31:27.176Z,962.72
2018-05-12T06:32:27.113Z,962.76
2018-05-12T06:33:27.053Z,962.75
2018-05-12T06:34:26.991Z,962.70
2018-05-12T06:35:26.929Z,962.73
2018-05-12T06:36:26.867Z,962.74
2018-05-12T06:37:26.803Z,962.71
2018-05-12T06:38:26.742Z,962.73
2018-05-12T06:39:26.683Z,962.68
2018-05-12T06:40:26.621Z,962.71
2018-05-12T06:41:26.555Z,962.74
2018-05-12T06:42:26.492Z,962.74
2018-05-12T06:43:26.432Z,962.71
2018-05-12T06:44:26.370Z,962.73
2018-05-12T06:45:26.308Z,962.70
2018-05-12T06:46:26.246Z,962.71
2018-05-12T06:47:26.184Z,962.74
2018-05-12T06:48:26.123Z,962.73
2018-05-12T06:49:26.058Z,962.74
2018-05-12T06:50:25.997Z,962.76
2018-05-12T06:51:25.939Z,962.74
2018-05-12T06:52:25.874Z,962.75
2018-05-12T06:53:25.813Z,962.77
2018-05-12T06:54:25.750Z,962.76
2018-05-12T06:55:25.689Z,962.75
2018-05-12T06:56:25.627Z,962.73
2018-05-12T06:57:25.565Z,962.75
2018-05-12T06:58:25.504Z,962.79
2018-05-12T06:59:25.443Z,962.76
2018-05-12T07:00:25.381Z,962.75
2018-05-12T07:01:25.357Z,962.78
2018-05-12T07:02:25.259Z,962.80
2018-05-12T07:03:25.197Z,962.79
2018-05-12T07:04:25.135Z,962.80
2018-05-12T07:05:25.073Z,962.79
2018-05-12T07:06:25.013Z,962.82
2018-05-12T07:07:24.950Z,962.80
2018-05-12T07:08:24.890Z,962.80
2018-05-12T07:09:24.826Z,962.81
2018-05-12T07:10:24.768Z,962.79
2018-05-12T07:11:24.705Z,962.79
2018-05-12T07:12:24.715Z,962.80
2018-05-12T07:13:24.582Z,962.78
2018-05-12T07:14:24.528Z,962.79
2018-05-12T07:15:24.458Z,962.77
2018-05-12T07:16:24.400Z,962.77
2018-05-12T07:17:24.336Z,962.74
2018-05-12T07:18:24.280Z,962.73
2018-05-12T07:19:24.267Z,962.75
2018-05-12T07:20:24.154Z,962.76
2018-05-12T07:21:24.092Z,962.75
2018-05-12T07:22:24.037Z,962.71
2018-05-12T07:23:23.968Z,962.70
2018-05-12T07:24:23.911Z,962.71
2018-05-12T07:25:23.852Z,962.69
2018-05-12T07:26:23.786Z,962.72
2018-05-12T07:27:23.723Z,962.73
2018-05-12T07:28:23.664Z,962.69
2018-05-12T07:29:23.603Z,962.67
2018-05-12T07:30:23.547Z,962.68
2018-05-12T07:31:23.479Z,962.66
2018-05-12T07:32:23.419Z,962.66
2018-05-12T07:33:23.358Z,962.63
2018-05-12T07:34:23.297Z,962.68
2018-05-12T07:35:23.239Z,962.65
2018-05-12T07:36:23.175Z,962.66
2018-05-12T07:37:23.113Z,962.68
2018-05-12T07:38:23.052Z,962.67
2018-05-12T07:39:22.991Z,962.70
2018-05-12T07:40:22.931Z,962.68
2018-05-12T07:41:22.871Z,962.70
2018-05-12T07:42:22.809Z,962.69
2018-05-12T07:43:22.749Z,962.69
2018-05-12T07:44:22.687Z,962.69
2018-05-12T07:45:22.626Z,962.64
2018-05-12T07:46:22.567Z,962.65
2018-05-12T07:47:22.505Z,962.65
2018-05-12T07:48:22.444Z,962.59
2018-05-12T07:49:22.384Z,962.60
2018-05-12T07:50:22.325Z,962.58
2018-05-12T07:51:22.261Z,962.59
2018-05-12T07:52:22.208Z,962.55
2018-05-12T07:53:22.140Z,962.55
2018-05-12T07:54:22.083Z,962.56
2018-05-12T07:55:22.023Z,962.56
2018-05-12T07:56:21.962Z,962.54
2018-05-12T07:57:21.899Z,962.60
2018-05-12T07:58:21.840Z,962.57
2018-05-12T07:59:21.775Z,962.58
2018-05-12T08:00:21.712Z,962.60
2018-05-12T08:01:21.659Z,962.57
2018-05-12T08:02:21.597Z,962.59
2018-05-12T08:03:21.538Z,962.56
2018-05-12T08:04:21.478Z,962.56
2018-05-12T08:05:21.418Z,962.53
2018-05-12T08:06:21.357Z,962.51
2018-05-12T08:07:21.297Z,962.51
2018-05-12T08:08:21.238Z,962.50
2018-05-12T08:09:21.177Z,962.52
2018-05-12T08:10:21.117Z,962.46
2018-05-12T08:11:21.055Z,962.46
2018-05-12T08:12:20.997Z,962.47
2018-05-12T08:13:20.936Z,962.48
2018-05-12T08:14:20.877Z,962.46
2018-05-12T08:15:20.815Z,962.48
2018-05-12T08:16:20.757Z,962.43
2018-05-12T08:17:20.696Z,962.43
2018-05-12T08:18:20.637Z,962.45
2018-05-12T08:19:20.582Z,962.43
2018-05-12T08:20:20.517Z,962.40
2018-05-12T08:21:20.460Z,962.41
2018-05-12T08:22:20.400Z,962.41
2018-05-12T08:23:20.339Z,962.40
2018-05-12T08:24:20.281Z,962.42
2018-05-12T08:25:20.221Z,962.39
2018-05-12T08:26:20.160Z,962.43
2018-05-12T08:27:20.100Z,962.35
2018-05-12T08:28:20.042Z,962.40
2018-05-12T08:29:19.983Z,962.43
2018-05-12T08:30:19.927Z,962.38
2018-05-12T08:31:19.865Z,962.37
2018-05-12T08:32:19.807Z,962.39
2018-05-12T08:33:19.747Z,962.35
2018-05-12T08:34:19.692Z,962.36
2018-05-12T08:35:19.628Z,962.34
2018-05-12T08:36:19.569Z,962.32
2018-05-12T08:37:19.509Z,962.33
2018-05-12T08:38:19.452Z,962.37
2018-05-12T08:39:19.394Z,962.32
2018-05-12T08:40:19.350Z,962.32
2018-05-12T08:41:19.276Z,962.27
2018-05-12T08:42:19.219Z,962.30
2018-05-12T08:43:19.160Z,962.33
2018-05-12T08:44:19.099Z,962.26
2018-05-12T08:45:19.043Z,962.25
2018-05-12T08:46:18.982Z,962.23
2018-05-12T08:47:18.927Z,962.24
2018-05-12T08:48:18.955Z,962.23
2018-05-12T08:49:18.807Z,962.20
2018-05-12T08:50:18.750Z,962.21
2018-05-12T08:51:18.690Z,962.16
2018-05-12T08:52:18.632Z,962.13
2018-05-12T08:53:18.576Z,962.15
2018-05-12T08:54:18.516Z,962.18
2018-05-12T08:55:18.538Z,962.15
2018-05-12T08:56:18.399Z,962.13
2018-05-12T08:57:18.339Z,962.12
2018-05-12T08:58:18.281Z,962.19
2018-05-12T08:59:18.222Z,962.12
2018-05-12T09:00:18.166Z,962.16
2018-05-12T09:01:18.109Z,962.15
2018-05-12T09:02:18.050Z,962.09
2018-05-12T09:03:17.989Z,962.08
2018-05-12T09:04:17.933Z,962.05
2018-05-12T09:05:17.877Z,962.03
2018-05-12T09:06:17.820Z,961.99
2018-05-12T09:07:17.872Z,961.97
2018-05-12T09:08:17.704Z,961.99
2018-05-12T09:09:17.643Z,961.96
2018-05-12T09:10:17.585Z,962.00
2018-05-12T09:11:17.527Z,961.96
2018-05-12T09:12:17.470Z,961.94
2018-05-12T09:13:17.413Z,961.93
2018-05-12T09:14:17.360Z,961.93
2018-05-12T09:15:17.296Z,961.95
2018-05-12T09:16:17.240Z,961.95
2018-05-12T09:17:17.183Z,961.91
2018-05-12T09:18:17.125Z,961.92
2018-05-12T09:19:17.143Z,961.88
2018-05-12T09:20:17.011Z,961.90
2018-05-12T09:21:16.952Z,961.88
2018-05-12T09:22:16.895Z,961.90
2018-05-12T09:23:16.836Z,961.86
2018-05-12T09:24:16.780Z,961.94
2018-05-12T09:25:16.724Z,961.95
2018-05-12T09:26:16.666Z,961.92
2018-05-12T09:27:16.610Z,961.93
2018-05-12T09:28:16.554Z,961.88
2018-05-12T09:29:16.495Z,961.88
2018-05-12T09:30:16.438Z,961.87
2018-05-12T09:31:16.380Z,961.82
2018-05-12T09:32:16.324Z,961.81
2018-05-12T09:33:16.268Z,961.80
2018-05-12T09:34:16.212Z,961.79
2018-05-12T09:35:16.153Z,961.83
2018-05-12T09:36:16.102Z,961.79
2018-05-12T09:37:16.060Z,961.76
2018-05-12T09:38:15.984Z,961.75
2018-05-12T09:39:15.931Z,961.78
2018-05-12T09:40:15.872Z,961.85
2018-05-12T09:41:15.817Z,961.79
2018-05-12T09:42:15.774Z,961.83
2018-05-12T09:43:15.709Z,961.86
2018-05-12T09:44:15.652Z,961.82
2018-05-12T09:45:15.593Z,961.80
2018-05-12T09:46:15.539Z,961.73
2018-05-12T09:47:15.481Z,961.78
2018-05-12T09:48:15.432Z,961.71
2018-05-12T09:49:15.377Z,961.72
2018-05-12T09:50:15.319Z,961.72
2018-05-12T09:51:15.268Z,961.69
2018-05-12T09:52:15.216Z,961.73
2018-05-12T09:53:15.163Z,961.70
2018-05-12T09:54:15.108Z,961.71
2018-05-12T09:55:15.057Z,961.75
2018-05-12T09:56:15.002Z,961.76
2018-05-12T09:57:14.950Z,961.79
2018-05-12T09:58:14.899Z,961.78
2018-05-12T09:59:14.845Z,961.77
2018-05-12T10:00:14.793Z,961.80
2018-05-12T10:01:14.745Z,961.76
2018-05-12T10:02:14.691Z,961.77
2018-05-12T10:03:14.639Z,961.74
2018-05-12T10:04:14.583Z,961.78
2018-05-12T10:05:14.535Z,961.74
2018-05-12T10:06:14.486Z,961.75
2018-05-12T10:07:14.434Z,961.72
2018-05-12T10:08:14.384Z,961.64
2018-05-12T10:09:14.334Z,961.73
2018-05-12T10:10:14.284Z,961.67
2018-05-12T10:11:14.230Z,961.65
2018-05-12T10:12:14.180Z,961.64
2018-05-12T10:13:14.132Z,961.65
2018-05-12T10:14:14.082Z,961.61
2018-05-12T10:15:14.032Z,961.67
2018-05-12T10:16:13.982Z,961.61
2018-05-12T10:17:13.934Z,961.59
2018-05-12T10:18:13.958Z,961.60
2018-05-12T10:19:13.832Z,961.57
2018-05-12T10:20:13.782Z,961.60
2018-05-12T10:21:13.733Z,961.58
2018-05-12T10:22:13.682Z,961.55
2018-05-12T10:23:13.634Z,961.53
2018-05-12T10:24:13.585Z,961.51
2018-05-12T10:25:13.535Z,961.52
2018-05-12T10:26:13.538Z,961.53
2018-05-12T10:27:13.437Z,961.59
2018-05-12T10:28:13.392Z,961.56
2018-05-12T10:29:13.342Z,961.59
2018-05-12T10:30:13.291Z,961.50
2018-05-12T10:31:13.239Z,961.53
2018-05-12T10:32:13.193Z,961.52
2018-05-12T10:33:13.141Z,961.48
2018-05-12T10:34:13.094Z,961.50
2018-05-12T10:35:13.045Z,961.47
2018-05-12T10:36:12.992Z,961.43
2018-05-12T10:37:12.944Z,961.41
2018-05-12T10:38:12.906Z,961.33
2018-05-12T10:39:12.840Z,961.35
2018-05-12T10:40:12.795Z,961.38
2018-05-12T10:41:12.744Z,961.37
2018-05-12T10:42:12.694Z,961.37
2018-05-12T10:43:12.645Z,961.41
2018-05-12T10:44:12.594Z,961.40
2018-05-12T10:45:12.546Z,961.35
2018-05-12T10:46:12.498Z,961.31
2018-05-12T10:47:12.445Z,961.27
2018-05-12T10:48:12.398Z,961.31
2018-05-12T10:49:12.348Z,961.30
2018-05-12T10:50:12.298Z,961.26
2018-05-12T10:51:12.247Z,961.24
2018-05-12T10:52:12.197Z,961.25
2018-05-12T10:53:12.148Z,961.32
2018-05-12T10:54:12.104Z,961.29
2018-05-12T10:55:12.054Z,961.26
2018-05-12T10:56:11.999Z,961.18
2018-05-12T10:57:11.950Z,961.17
2018-05-12T10:58:11.902Z,961.17
2018-05-12T10:59:11.848Z,961.16
2018-05-12T11:00:11.798Z,961.10
2018-05-12T11:01:11.750Z,961.09
2018-05-12T11:02:11.696Z,961.04
2018-05-12T11:03:11.647Z,961.02
2018-05-12T11:04:11.594Z,961.02
2018-05-12T11:05:11.545Z,961.01
2018-05-12T11:06:11.493Z,961.01
2018-05-12T11:07:11.440Z,960.94
2018-05-12T11:08:11.392Z,960.93
2018-05-12T11:09:11.335Z,960.94
2018-05-12T11:10:11.287Z,960.92
2018-05-12T11:11:11.231Z,960.96
2018-05-12T11:12:11.181Z,960.91
2018-05-12T11:13:11.128Z,960.87
2018-05-12T11:14:11.075Z,960.89
2018-05-12T11:15:11.024Z,960.85
2018-05-12T11:16:10.998Z,960.81
2018-05-12T11:17:10.916Z,960.83
2018-05-12T11:18:10.867Z,960.78
2018-05-12T11:19:10.811Z,960.75
2018-05-12T11:20:10.761Z,960.78
2018-05-12T11:21:10.703Z,960.78
2018-05-12T11:22:10.654Z,960.72
2018-05-12T11:23:10.597Z,960.70
2018-05-12T11:24:10.545Z,960.72
2018-05-12T11:25:10.491Z,960.69
2018-05-12T11:26:10.439Z,960.65
2018-05-12T11:27:10.380Z,960.65
2018-05-12T11:28:10.327Z,960.56
2018-05-12T11:29:10.273Z,960.58
2018-05-12T11:30:10.220Z,960.52
2018-05-12T11:31:10.166Z,960.53
2018-05-12T11:32:10.163Z,960.54
2018-05-12T11:33:10.059Z,960.54
2018-05-12T11:34:10.003Z,960.49
2018-05-12T11:35:09.956Z,960.49
2018-05-12T11:36:09.899Z,960.52
2018-05-12T11:37:09.839Z,960.49
2018-05-12T11:38:09.781Z,960.49
2018-05-12T11:39:09.728Z,960.49
2018-05-12T11:40:09.671Z,960.52
2018-05-12T11:41:09.618Z,960.48
2018-05-12T11:42:09.563Z,960.46
2018-05-12T11:43:09.507Z,960.46
2018-05-12T11:44:09.453Z,960.41
2018-05-12T11:45:09.396Z,960.40
2018-05-12T11:46:09.345Z,960.40
2018-05-12T11:47:09.287Z,960.40
2018-05-12T11:48:09.240Z,960.40
2018-05-12T11:49:09.172Z,960.32
2018-05-12T11:50:09.173Z,960.28
2018-05-12T11:51:09.066Z,960.30
2018-05-12T11:52:09.011Z,960.24
2018-05-12T11:53:08.954Z,960.24
2018-05-12T11:54:08.983Z,960.24
2018-05-12T11:55:08.844Z,960.29
2018-05-12T11:56:08.789Z,960.21
2018-05-12T11:57:08.733Z,960.20
2018-05-12T11:58:08.677Z,960.19
2018-05-12T11:59:08.622Z,960.28
2018-05-12T12:00:08.565Z,960.18
2018-05-12T12:01:08.510Z,960.21
2018-05-12T12:02:08.455Z,960.19
2018-05-12T12:03:08.399Z,960.17
2018-05-12T12:04:08.343Z,960.15
2018-05-12T12:05:08.288Z,960.14
2018-05-12T12:06:08.236Z,960.16
2018-05-12T12:07:08.174Z,960.15
2018-05-12T12:08:08.118Z,960.09
2018-05-12T12:09:08.063Z,960.06
2018-05-12T12:10:08.008Z,960.05
2018-05-12T12:11:07.952Z,960.03
2018-05-12T12:12:07.897Z,960.04
2018-05-12T12:13:07.838Z,960.05
2018-05-12T12:14:07.784Z,960.05
2018-05-12T12:15:07.728Z,959.96
2018-05-12T12:16:07.675Z,959.96
2018-05-12T12:17:07.618Z,959.97
2018-05-12T12:18:07.559Z,959.99
2018-05-12T12:19:07.506Z,959.95
2018-05-12T12:20:07.449Z,959.92
2018-05-12T12:21:07.393Z,959.88
2018-05-12T12:22:07.339Z,959.89
2018-05-12T12:23:07.281Z,959.92
2018-05-12T12:24:07.225Z,959.90
2018-05-12T12:25:07.168Z,959.95
2018-05-12T12:26:07.114Z,959.86
2018-05-12T12:27:07.056Z,959.86
2018-05-12T12:28:07.001Z,959.95